Time;durP1;ratioP1;P1;durP2;ratioP2;P2;SDS_P1;SDS_P2;PMS_P1;PMS_P2;Temp;Humidity;BMP_temperature;BMP_pressure;BME280_temperature;BME280_humidity;BME280_pressure;Samples;Min_cycle;Max_cycle;Signal;HPM_P1;HPM_P2
2022/12/09 00:01:21;;;;;;;66.27;29.63;;;3.90;99.90;;;;;;5060334;28;20249;-66
2022/12/09 00:03:49;;;;;;;67.27;29.17;;;3.90;99.90;;;;;;5060371;28;20589;-65
2022/12/09 00:06:27;;;;;;;66.03;29.37;;;3.90;99.90;;;;;;5061944;28;20240;-65
2022/12/09 00:08:56;;;;;;;67.43;28.20;;;3.90;99.90;;;;;;5058913;28;20218;-66
2022/12/09 00:11:23;;;;;;;64.63;28.23;;;3.80;99.90;;;;;;5044250;28;20343;-67
2022/12/09 00:13:55;;;;;;;68.93;28.60;;;3.80;99.90;;;;;;5058612;28;20250;-65
2022/12/09 00:16:23;;;;;;;64.23;28.90;;;3.80;99.90;;;;;;5046084;28;20192;-67
2022/12/09 00:18:51;;;;;;;66.63;26.83;;;3.90;99.90;;;;;;5062995;28;20197;-68
2022/12/09 00:21:29;;;;;;;67.53;29.30;;;3.90;99.90;;;;;;5062957;28;20259;-68
2022/12/09 00:23:57;;;;;;;65.27;30.10;;;3.90;99.90;;;;;;5062149;28;20295;-67
2022/12/09 00:26:26;;;;;;;59.03;27.37;;;3.90;99.90;;;;;;5041277;28;20267;-67
2022/12/09 00:28:54;;;;;;;69.37;29.23;;;3.90;99.90;;;;;;5064609;28;20285;-67
2022/12/09 00:31:23;;;;;;;68.43;29.43;;;3.90;99.90;;;;;;5062467;28;20229;-67
2022/12/09 00:33:53;;;;;;;66.47;28.77;;;3.90;99.90;;;;;;5057689;28;20542;-67
2022/12/09 00:36:21;;;;;;;65.37;27.27;;;3.80;99.90;;;;;;5062043;28;20200;-68
2022/12/09 00:38:48;;;;;;;64.83;28.87;;;3.90;99.90;;;;;;5065027;28;20207;-67
2022/12/09 00:41:16;;;;;;;67.20;29.03;;;3.90;99.90;;;;;;5061040;28;20680;-67
2022/12/09 00:43:43;;;;;;;69.33;29.20;;;3.90;99.90;;;;;;5054314;28;20205;-67
2022/12/09 00:46:11;;;;;;;65.33;28.83;;;3.90;99.90;;;;;;5060329;28;20204;-67
2022/12/09 00:48:38;;;;;;;70.80;30.67;;;3.90;99.90;;;;;;5059056;28;20230;-66
2022/12/09 00:51:07;;;;;;;70.73;30.40;;;3.90;99.90;;;;;;5063359;28;20574;-65
2022/12/09 00:53:34;;;;;;;64.60;28.07;;;3.90;99.90;;;;;;5060004;28;20199;-67
2022/12/09 00:56:01;;;;;;;76.70;30.43;;;3.90;99.90;;;;;;5066289;28;20208;-67
2022/12/09 00:58:28;;;;;;;69.10;28.97;;;3.90;99.90;;;;;;5059259;28;20255;-67
2022/12/09 01:00:55;;;;;;;70.33;31.00;;;3.90;99.90;;;;;;5060073;28;20296;-67
2022/12/09 01:03:23;;;;;;;69.87;29.70;;;3.90;99.90;;;;;;5058539;28;20729;-67
2022/12/09 01:05:50;;;;;;;71.70;31.60;;;4.00;99.90;;;;;;5060687;28;20596;-67
2022/12/09 01:08:17;;;;;;;68.57;29.23;;;3.90;99.90;;;;;;5053264;28;20232;-67
2022/12/09 01:10:45;;;;;;;72.43;30.27;;;4.00;99.90;;;;;;5064797;28;20239;-67
2022/12/09 01:13:13;;;;;;;65.70;29.00;;;4.00;99.90;;;;;;5059004;28;20320;-67
2022/12/09 01:15:40;;;;;;;79.13;32.17;;;4.00;99.90;;;;;;5066381;28;20292;-68
2022/12/09 01:18:10;;;;;;;71.00;30.37;;;4.00;99.90;;;;;;5057573;28;20209;-67
2022/12/09 01:20:37;;;;;;;73.13;29.67;;;4.00;99.90;;;;;;5069021;28;20229;-67
2022/12/09 01:23:04;;;;;;;73.43;31.77;;;3.90;99.90;;;;;;5061280;28;20201;-67
2022/12/09 01:25:30;;;;;;;68.43;28.93;;;4.00;99.90;;;;;;5062290;28;20673;-67
2022/12/09 01:27:57;;;;;;;72.67;31.30;;;4.00;99.90;;;;;;5060967;28;20251;-67
2022/12/09 01:30:24;;;;;;;75.03;32.20;;;4.00;99.90;;;;;;5066869;28;20208;-67
2022/12/09 01:32:51;;;;;;;74.03;31.97;;;4.00;99.90;;;;;;5055989;28;20232;-67
2022/12/09 01:35:18;;;;;;;75.07;32.87;;;4.10;99.90;;;;;;5064826;28;20560;-67
2022/12/09 01:37:45;;;;;;;74.53;31.73;;;4.10;99.90;;;;;;5063919;28;20212;-67
2022/12/09 01:40:15;;;;;;;75.07;31.63;;;4.10;99.90;;;;;;5068576;28;20199;-67
2022/12/09 01:42:43;;;;;;;68.50;29.33;;;4.00;99.90;;;;;;5061045;28;20581;-67
2022/12/09 01:45:20;;;;;;;72.63;30.37;;;4.00;99.90;;;;;;5064888;28;20210;-67
2022/12/09 01:47:49;;;;;;;71.30;29.90;;;4.00;99.90;;;;;;5056506;28;20212;-67
2022/12/09 01:50:17;;;;;;;70.53;29.00;;;4.00;99.90;;;;;;5063913;28;20565;-66
2022/12/09 01:52:46;;;;;;;75.63;31.23;;;4.00;99.90;;;;;;5067319;28;20583;-67
2022/12/09 01:55:13;;;;;;;71.47;30.97;;;4.00;99.90;;;;;;5068771;28;20246;-67
2022/12/09 01:57:41;;;;;;;75.83;30.83;;;4.10;99.90;;;;;;5062051;28;20224;-66
2022/12/09 02:00:09;;;;;;;72.90;29.13;;;4.00;99.90;;;;;;5060633;28;20216;-67
2022/12/09 02:02:38;;;;;;;65.50;29.83;;;4.00;99.90;;;;;;5065321;28;20267;-68
2022/12/09 02:05:06;;;;;;;68.07;30.57;;;4.00;99.90;;;;;;5062845;28;20205;-68
2022/12/09 02:07:33;;;;;;;70.97;30.07;;;4.00;99.90;;;;;;5061220;28;20212;-67
2022/12/09 02:10:02;;;;;;;68.10;28.57;;;4.00;99.90;;;;;;5064057;28;20217;-67
2022/12/09 02:12:40;;;;;;;65.00;28.37;;;3.90;99.90;;;;;;5057568;28;20252;-67
2022/12/09 02:15:16;;;;;;;69.07;28.87;;;3.90;99.90;;;;;;5066730;28;20240;-67
2022/12/09 02:17:50;;;;;;;65.13;29.27;;;3.80;99.90;;;;;;5059752;28;20839;-67
2022/12/09 02:20:20;;;;;;;67.00;28.77;;;3.80;99.90;;;;;;5063174;28;20586;-66
2022/12/09 02:23:12;;;;;;;67.60;29.90;;;3.70;99.90;;;;;;5064769;28;20223;-66
2022/12/09 02:25:55;;;;;;;59.70;28.07;;;3.60;99.90;;;;;;5058591;28;20213;-67
2022/12/09 02:28:59;;;;;;;68.20;28.90;;;3.50;99.90;;;;;;5066236;28;20224;-67
2022/12/09 02:31:45;;;;;;;58.13;25.13;;;3.30;99.90;;;;;;5063883;28;20226;-66
2022/12/09 02:34:25;;;;;;;55.87;25.77;;;3.20;99.90;;;;;;5064131;28;20213;-66
2022/12/09 02:36:55;;;;;;;56.80;26.83;;;3.10;99.90;;;;;;5060513;28;20301;-66
2022/12/09 02:39:38;;;;;;;59.80;25.60;;;3.00;99.90;;;;;;5062285;28;20725;-66
2022/12/09 02:42:08;;;;;;;65.60;28.37;;;2.90;99.90;;;;;;5061161;28;20333;-66
2022/12/09 02:44:38;;;;;;;65.57;27.67;;;2.80;99.90;;;;;;5063197;28;20620;-66
2022/12/09 02:47:08;;;;;;;79.37;29.57;;;2.70;99.90;;;;;;5053948;28;20260;-66
2022/12/09 02:49:36;;;;;;;69.27;29.73;;;2.60;99.90;;;;;;5064706;28;20568;-67
2022/12/09 02:52:04;;;;;;;60.70;25.50;;;2.50;99.90;;;;;;5068061;28;20526;-67
2022/12/09 02:54:33;;;;;;;63.80;27.57;;;2.50;99.90;;;;;;5064816;28;20706;-66
2022/12/09 02:57:29;;;;;;;68.90;27.40;;;2.50;99.90;;;;;;5058062;28;20219;-67
2022/12/09 02:59:56;;;;;;;73.57;29.93;;;2.40;99.90;;;;;;5059506;28;20245;-67
2022/12/09 03:02:37;;;;;;;80.43;30.90;;;2.30;99.90;;;;;;5046308;28;20244;-67
2022/12/09 03:05:32;;;;;;;78.03;28.73;;;2.30;99.90;;;;;;5063792;28;20210;-65
2022/12/09 03:08:08;;;;;;;80.60;30.23;;;2.30;99.90;;;;;;5058514;28;20714;-65
2022/12/09 03:10:55;;;;;;;85.50;31.80;;;2.40;99.90;;;;;;5060621;28;20234;-65
2022/12/09 03:14:01;;;;;;;85.97;31.87;;;2.40;99.90;;;;;;5062760;28;20233;-67
2022/12/09 03:16:36;;;;;;;85.33;31.17;;;2.50;99.90;;;;;;5055612;28;20210;-66
2022/12/09 03:19:27;;;;;;;84.77;30.97;;;2.50;99.90;;;;;;5044529;28;20736;-66
2022/12/09 03:22:02;;;;;;;78.13;30.70;;;2.60;99.90;;;;;;5059470;28;20206;-66
2022/12/09 03:24:48;;;;;;;83.33;31.53;;;2.60;99.90;;;;;;5062676;28;20214;-67
2022/12/09 03:27:22;;;;;;;73.50;30.17;;;2.70;99.90;;;;;;5063394;28;20210;-67
2022/12/09 03:29:50;;;;;;;77.70;29.23;;;2.70;99.90;;;;;;5066408;28;20561;-67
2022/12/09 03:32:22;;;;;;;81.53;30.73;;;2.70;99.90;;;;;;5055797;28;20228;-66
2022/12/09 03:34:58;;;;;;;75.50;30.10;;;2.80;99.90;;;;;;5064134;28;20202;-66
2022/12/09 03:37:26;;;;;;;77.63;28.80;;;2.80;99.90;;;;;;5056313;28;20219;-66
2022/12/09 03:39:54;;;;;;;67.83;27.80;;;2.90;99.90;;;;;;5063565;28;20204;-67
2022/12/09 03:42:30;;;;;;;68.53;27.03;;;2.90;99.90;;;;;;5062180;28;20223;-66
2022/12/09 03:45:01;;;;;;;72.07;28.07;;;2.90;99.90;;;;;;5060318;28;20299;-67
2022/12/09 03:47:28;;;;;;;69.87;27.83;;;2.90;99.90;;;;;;5056992;28;20719;-67
2022/12/09 03:49:57;;;;;;;65.67;27.07;;;2.90;99.90;;;;;;5061835;28;20226;-67
2022/12/09 03:52:46;;;;;;;66.70;28.63;;;2.90;99.90;;;;;;5062115;28;20228;-67
2022/12/09 03:55:15;;;;;;;69.73;28.70;;;2.90;99.90;;;;;;5065357;28;20261;-67
2022/12/09 03:57:44;;;;;;;70.27;27.77;;;2.90;99.90;;;;;;5058428;28;20251;-67
2022/12/09 04:00:11;;;;;;;71.00;28.67;;;3.00;99.90;;;;;;5046146;28;20609;-67
2022/12/09 04:02:39;;;;;;;74.13;28.63;;;3.00;99.90;;;;;;5039874;28;20606;-66
2022/12/09 04:05:07;;;;;;;66.30;26.73;;;3.00;99.90;;;;;;5062551;28;20225;-67
2022/12/09 04:07:35;;;;;;;66.27;27.13;;;3.00;99.90;;;;;;5060616;28;20205;-67
2022/12/09 04:10:03;;;;;;;63.43;26.63;;;3.10;99.90;;;;;;5062051;28;20781;-67
2022/12/09 04:12:30;;;;;;;65.33;27.20;;;3.10;99.90;;;;;;5042565;28;20330;-67
2022/12/09 04:14:57;;;;;;;65.50;27.23;;;3.10;99.90;;;;;;5053833;28;20259;-67
2022/12/09 04:17:24;;;;;;;59.93;27.13;;;3.10;99.90;;;;;;5061708;28;20211;-67
2022/12/09 04:19:51;;;;;;;56.87;24.33;;;3.10;99.90;;;;;;5062149;28;21012;-67
2022/12/09 04:22:18;;;;;;;57.97;25.63;;;3.00;99.90;;;;;;5062883;28;20281;-67
2022/12/09 04:24:45;;;;;;;56.57;24.57;;;3.00;99.90;;;;;;5062686;28;20737;-67
2022/12/09 04:27:12;;;;;;;54.63;23.60;;;2.90;99.90;;;;;;5059451;28;20317;-67
2022/12/09 04:29:38;;;;;;;63.10;25.10;;;2.90;99.90;;;;;;5063607;28;20710;-66
2022/12/09 04:32:05;;;;;;;63.43;25.87;;;2.80;99.90;;;;;;5061262;28;20346;-67
2022/12/09 04:34:33;;;;;;;61.03;24.60;;;2.80;99.90;;;;;;5060587;28;20648;-66
2022/12/09 04:36:59;;;;;;;56.03;23.97;;;2.70;99.90;;;;;;5058258;28;20285;-66
2022/12/09 04:39:26;;;;;;;60.83;25.87;;;2.70;99.90;;;;;;5050244;28;20221;-67
2022/12/09 04:41:53;;;;;;;59.37;23.33;;;2.60;99.90;;;;;;5055171;28;20226;-66
2022/12/09 04:44:20;;;;;;;56.07;24.83;;;2.60;99.90;;;;;;5060101;28;20693;-67
2022/12/09 04:46:47;;;;;;;56.67;24.53;;;2.50;99.90;;;;;;5043990;28;20739;-67
2022/12/09 04:49:14;;;;;;;65.67;25.73;;;2.40;99.90;;;;;;5063700;28;20259;-66
2022/12/09 04:51:41;;;;;;;53.77;23.77;;;2.40;99.90;;;;;;5066982;28;20763;-66
2022/12/09 04:54:12;;;;;;;61.70;25.60;;;2.30;99.90;;;;;;5050904;28;20210;-66
2022/12/09 04:56:40;;;;;;;62.03;25.27;;;2.20;99.90;;;;;;5067709;28;20247;-66
2022/12/09 04:59:07;;;;;;;59.07;24.60;;;2.20;99.90;;;;;;5065788;28;20210;-66
2022/12/09 05:01:34;;;;;;;59.20;25.13;;;2.10;99.90;;;;;;5065192;28;20206;-66
2022/12/09 05:04:01;;;;;;;67.07;24.63;;;2.00;99.90;;;;;;5059402;28;20212;-66
2022/12/09 05:06:29;;;;;;;62.50;24.27;;;2.00;99.90;;;;;;5059916;28;20206;-66
2022/12/09 05:08:56;;;;;;;62.03;24.30;;;1.90;99.90;;;;;;5063481;28;20268;-67
2022/12/09 05:11:23;;;;;;;53.70;23.10;;;1.90;99.90;;;;;;5068474;28;20251;-66
2022/12/09 05:13:52;;;;;;;58.93;24.43;;;1.80;99.90;;;;;;5048695;28;20229;-67
2022/12/09 05:16:19;;;;;;;53.60;23.47;;;1.80;99.90;;;;;;5067100;28;20249;-66
2022/12/09 05:18:48;;;;;;;53.87;22.07;;;1.70;99.90;;;;;;5067861;28;20217;-66
2022/12/09 05:21:18;;;;;;;62.37;23.70;;;1.70;99.90;;;;;;5069780;28;20254;-68
2022/12/09 05:23:46;;;;;;;58.90;23.07;;;1.60;99.90;;;;;;5064569;28;20212;-65
2022/12/09 05:26:16;;;;;;;59.90;24.20;;;1.60;99.90;;;;;;5063159;28;20201;-66
2022/12/09 05:28:43;;;;;;;58.80;24.23;;;1.60;99.90;;;;;;5066668;28;20233;-66
2022/12/09 05:31:13;;;;;;;60.17;25.17;;;1.50;99.90;;;;;;5047011;28;20231;-67
2022/12/09 05:33:42;;;;;;;57.77;25.43;;;1.50;99.90;;;;;;5066793;28;20258;-66
2022/12/09 05:36:10;;;;;;;63.93;25.73;;;1.50;99.90;;;;;;5062829;28;20213;-67
2022/12/09 05:38:38;;;;;;;61.03;25.70;;;1.50;99.90;;;;;;5067202;28;20244;-66
2022/12/09 05:41:06;;;;;;;74.50;27.20;;;1.50;99.90;;;;;;5044048;28;20210;-66
2022/12/09 05:43:34;;;;;;;68.47;26.93;;;1.50;99.90;;;;;;5059423;28;20213;-66
2022/12/09 05:46:01;;;;;;;67.37;25.67;;;1.50;99.90;;;;;;5059770;28;20201;-67
2022/12/09 05:48:29;;;;;;;124.87;29.73;;;1.50;99.90;;;;;;5047843;28;20226;-67
2022/12/09 05:51:05;;;;;;;127.83;28.50;;;1.50;99.90;;;;;;5059457;28;20642;-67
2022/12/09 05:53:32;;;;;;;158.30;32.40;;;1.40;99.90;;;;;;5066579;28;20701;-67
2022/12/09 05:55:59;;;;;;;206.20;34.37;;;1.40;99.90;;;;;;5062201;28;20554;-65
2022/12/09 05:58:27;;;;;;;182.90;32.83;;;1.40;99.90;;;;;;5059439;28;20240;-67
2022/12/09 06:00:55;;;;;;;74.97;27.13;;;1.40;99.90;;;;;;5043218;28;20292;-67
2022/12/09 06:03:23;;;;;;;69.67;25.77;;;1.40;99.90;;;;;;5058782;28;20209;-68
2022/12/09 06:05:50;;;;;;;67.17;25.97;;;1.30;99.90;;;;;;5061844;28;20239;-67
2022/12/09 06:08:18;;;;;;;65.73;26.83;;;1.30;99.90;;;;;;5061629;28;20209;-67
2022/12/09 06:10:45;;;;;;;61.60;24.70;;;1.20;99.90;;;;;;5047877;28;20229;-68
2022/12/09 06:13:13;;;;;;;58.40;25.33;;;1.20;99.90;;;;;;5062664;28;20232;-67
2022/12/09 06:15:40;;;;;;;61.57;25.57;;;1.20;99.90;;;;;;5062517;28;20219;-67
2022/12/09 06:18:07;;;;;;;64.37;25.77;;;1.20;99.90;;;;;;5066891;28;20570;-67
2022/12/09 06:20:39;;;;;;;63.87;25.43;;;1.10;99.90;;;;;;5065460;28;20204;-67
2022/12/09 06:23:06;;;;;;;65.93;25.40;;;1.00;99.90;;;;;;5065480;28;20205;-67
2022/12/09 06:25:34;;;;;;;74.00;27.83;;;1.00;99.90;;;;;;5060576;28;20649;-67
2022/12/09 06:28:00;;;;;;;70.00;26.87;;;1.00;99.90;;;;;;5067378;28;20262;-67
2022/12/09 06:30:27;;;;;;;67.87;27.13;;;0.90;99.90;;;;;;5066147;28;20197;-68
2022/12/09 06:32:54;;;;;;;67.83;27.10;;;0.90;99.90;;;;;;5070139;28;20322;-67
2022/12/09 06:35:21;;;;;;;61.47;23.83;;;0.80;99.90;;;;;;5061928;28;20210;-67
2022/12/09 06:37:52;;;;;;;63.53;24.13;;;0.80;99.90;;;;;;5064746;28;20205;-67
2022/12/09 06:40:22;;;;;;;79.03;25.40;;;0.80;99.90;;;;;;5064867;28;20780;-67
2022/12/09 06:42:50;;;;;;;344.20;36.83;;;0.80;99.90;;;;;;5065518;28;20221;-66
2022/12/09 06:45:18;;;;;;;219.97;32.27;;;0.70;99.90;;;;;;5058352;28;20205;-67
2022/12/09 06:47:46;;;;;;;212.37;33.63;;;0.70;99.90;;;;;;5061657;28;20618;-66
2022/12/09 06:50:13;;;;;;;71.63;26.27;;;0.60;99.90;;;;;;5055627;28;20682;-66
2022/12/09 06:52:40;;;;;;;73.47;25.80;;;0.60;99.90;;;;;;5061852;28;20240;-66
2022/12/09 06:55:09;;;;;;;64.10;24.97;;;0.50;99.90;;;;;;5049999;28;20655;-66
2022/12/09 06:57:36;;;;;;;84.07;25.33;;;0.50;99.90;;;;;;5065090;28;20914;-65
2022/12/09 07:00:03;;;;;;;80.93;24.80;;;0.50;99.90;;;;;;5065654;28;20270;-66
2022/12/09 07:02:33;;;;;;;65.43;23.60;;;0.40;99.90;;;;;;5066242;28;20629;-66
2022/12/09 07:05:03;;;;;;;68.27;23.93;;;0.40;99.90;;;;;;5056110;28;20209;-65
2022/12/09 07:07:30;;;;;;;69.27;25.10;;;0.30;99.90;;;;;;5068399;28;20191;-65
2022/12/09 07:09:57;;;;;;;77.23;26.07;;;0.30;99.90;;;;;;5049987;28;20240;-66
2022/12/09 07:12:25;;;;;;;104.90;25.23;;;0.30;99.90;;;;;;5067998;28;20219;-66
2022/12/09 07:14:52;;;;;;;81.17;26.20;;;0.30;99.90;;;;;;5062655;28;20621;-66
2022/12/09 07:17:19;;;;;;;111.93;28.80;;;0.30;99.90;;;;;;5065456;28;20209;-66
2022/12/09 07:19:47;;;;;;;90.70;27.73;;;0.20;99.90;;;;;;5066443;28;20213;-66
2022/12/09 07:22:14;;;;;;;123.43;28.43;;;0.20;99.90;;;;;;5062241;28;20292;-66
2022/12/09 07:24:42;;;;;;;190.80;29.73;;;0.10;99.90;;;;;;5061686;28;20200;-67
2022/12/09 07:27:13;;;;;;;289.43;32.73;;;0.10;99.90;;;;;;5061326;28;20568;-67
2022/12/09 07:29:45;;;;;;;188.17;31.70;;;0.10;99.90;;;;;;5063924;28;20203;-66
2022/12/09 07:32:13;;;;;;;292.63;32.50;;;0.00;99.90;;;;;;5063951;28;20228;-66
2022/12/09 07:34:41;;;;;;;409.13;43.70;;;0.00;99.90;;;;;;5045187;28;20193;-67
2022/12/09 07:37:08;;;;;;;152.50;24.53;;;0.00;99.90;;;;;;5053975;28;20208;-66
2022/12/09 07:39:35;;;;;;;256.03;31.57;;;0.00;99.90;;;;;;5064787;28;20219;-67
2022/12/09 07:42:02;;;;;;;247.20;32.13;;;0.10;99.90;;;;;;5054644;28;20696;-67
2022/12/09 07:44:29;;;;;;;129.97;27.57;;;-0.10;99.90;;;;;;5064962;28;20217;-67
2022/12/09 07:46:57;;;;;;;161.43;26.23;;;-0.10;99.90;;;;;;5065260;28;20252;-67
2022/12/09 07:49:24;;;;;;;86.73;25.23;;;-0.10;99.90;;;;;;5065181;28;20639;-67
2022/12/09 07:51:51;;;;;;;66.50;23.93;;;-0.10;99.90;;;;;;5064532;28;20236;-67
2022/12/09 07:54:19;;;;;;;77.93;25.87;;;-0.10;99.90;;;;;;5064582;28;20528;-66
2022/12/09 07:56:46;;;;;;;67.33;23.53;;;-0.10;99.90;;;;;;5067679;28;20282;-66
2022/12/09 07:59:14;;;;;;;66.33;24.20;;;-0.20;99.90;;;;;;5064097;28;20258;-67
2022/12/09 08:01:42;;;;;;;66.30;24.10;;;-0.20;99.90;;;;;;5065990;28;20196;-65
2022/12/09 08:04:09;;;;;;;57.93;21.40;;;-0.20;99.90;;;;;;5064277;28;20198;-68
2022/12/09 08:06:36;;;;;;;55.80;22.00;;;-0.20;99.90;;;;;;5061898;28;20311;-66
2022/12/09 08:09:07;;;;;;;53.93;22.27;;;-0.20;99.90;;;;;;5064162;28;20700;-65
2022/12/09 08:11:34;;;;;;;54.13;21.93;;;-0.20;99.90;;;;;;5063995;28;20676;-66
2022/12/09 08:14:04;;;;;;;61.37;24.87;;;-0.30;99.90;;;;;;5060409;28;20262;-67
2022/12/09 08:16:38;;;;;;;53.00;22.40;;;-0.30;99.90;;;;;;5063425;28;20198;-66
2022/12/09 08:19:05;;;;;;;58.27;22.70;;;-0.30;99.90;;;;;;5051093;28;20205;-66
2022/12/09 08:21:32;;;;;;;54.63;22.57;;;-0.30;99.90;;;;;;5038299;28;20200;-65
2022/12/09 08:24:02;;;;;;;57.70;24.03;;;-0.30;99.90;;;;;;5059520;28;20203;-67
2022/12/09 08:26:31;;;;;;;57.97;23.87;;;-0.30;99.90;;;;;;5063173;28;20337;-65
2022/12/09 08:28:58;;;;;;;59.90;24.53;;;-0.30;99.90;;;;;;5064708;28;20207;-66
2022/12/09 08:31:26;;;;;;;71.33;25.83;;;-0.30;99.90;;;;;;5063022;28;20668;-66
2022/12/09 08:33:53;;;;;;;67.30;24.27;;;-0.30;99.90;;;;;;5042678;28;20228;-66
2022/12/09 08:36:24;;;;;;;63.87;25.00;;;-0.30;99.90;;;;;;5059633;28;20228;-67
2022/12/09 08:38:51;;;;;;;70.93;26.10;;;-0.30;99.90;;;;;;5042739;28;20310;-65
2022/12/09 08:41:36;;;;;;;66.17;25.47;;;-0.30;99.90;;;;;;5046287;28;20196;-66
2022/12/09 08:44:06;;;;;;;64.17;25.33;;;-0.30;99.90;;;;;;5056491;28;20660;-66
2022/12/09 08:46:35;;;;;;;70.43;25.00;;;-0.30;99.90;;;;;;5064350;28;20208;-66
2022/12/09 08:49:04;;;;;;;71.23;24.50;;;-0.30;99.90;;;;;;5065093;28;20298;-67
2022/12/09 08:51:32;;;;;;;70.20;26.70;;;-0.30;99.90;;;;;;5063648;28;20521;-67
2022/12/09 08:54:00;;;;;;;72.70;26.40;;;-0.20;99.90;;;;;;5060373;28;20223;-68
2022/12/09 08:56:27;;;;;;;73.23;26.17;;;-0.20;99.90;;;;;;5061398;28;20227;-66
2022/12/09 08:58:55;;;;;;;71.17;25.13;;;-0.20;99.90;;;;;;5059330;28;20243;-67
2022/12/09 09:01:25;;;;;;;70.53;25.73;;;-0.10;99.90;;;;;;5058249;28;20283;-66
2022/12/09 09:03:52;;;;;;;73.57;26.40;;;-0.10;99.90;;;;;;5061322;28;20208;-67
2022/12/09 09:06:20;;;;;;;68.33;24.90;;;-0.10;99.90;;;;;;5065430;28;20199;-66
2022/12/09 09:08:47;;;;;;;75.63;25.77;;;0.00;99.90;;;;;;5060817;28;20241;-65
2022/12/09 09:11:17;;;;;;;73.33;27.83;;;0.00;99.90;;;;;;5064785;28;20323;-67
2022/12/09 09:13:47;;;;;;;76.17;25.47;;;0.00;99.90;;;;;;5063556;28;20205;-65
2022/12/09 09:16:17;;;;;;;69.73;24.40;;;0.00;99.90;;;;;;5060711;28;20638;-67
2022/12/09 09:18:44;;;;;;;74.50;26.10;;;0.10;99.90;;;;;;5064486;28;20217;-66
2022/12/09 09:21:14;;;;;;;77.97;28.87;;;0.10;99.90;;;;;;5063647;28;20191;-66
2022/12/09 09:23:42;;;;;;;69.83;25.13;;;0.10;99.90;;;;;;5062463;28;20264;-66
2022/12/09 09:26:15;;;;;;;94.13;31.67;;;0.10;99.90;;;;;;5057113;28;20584;-66
2022/12/09 09:28:42;;;;;;;106.83;34.70;;;0.20;99.90;;;;;;5062097;28;20208;-66
2022/12/09 09:31:11;;;;;;;124.13;38.77;;;0.20;99.90;;;;;;5063000;28;20242;-67
2022/12/09 09:33:39;;;;;;;126.13;39.60;;;0.30;99.90;;;;;;5067002;28;20232;-66
2022/12/09 09:36:10;;;;;;;122.73;37.33;;;0.30;99.90;;;;;;5061337;28;20205;-67
2022/12/09 09:38:37;;;;;;;138.00;41.30;;;0.40;99.90;;;;;;5066063;28;20683;-66
2022/12/09 09:41:32;;;;;;;126.93;38.90;;;0.40;99.90;;;;;;5064704;28;20676;-68
2022/12/09 09:44:00;;;;;;;133.17;40.40;;;0.40;99.90;;;;;;5050269;28;20338;-67
2022/12/09 09:46:39;;;;;;;122.73;38.80;;;0.50;99.90;;;;;;5049317;28;20629;-67
2022/12/09 09:49:13;;;;;;;139.77;39.77;;;0.60;99.90;;;;;;5069165;28;20196;-68
2022/12/09 09:51:40;;;;;;;116.20;38.10;;;0.60;99.90;;;;;;5068071;28;20207;-66
2022/12/09 09:54:12;;;;;;;125.33;40.23;;;0.70;99.90;;;;;;5067830;28;20220;-66
2022/12/09 09:57:00;;;;;;;124.70;37.03;;;0.70;99.90;;;;;;5065466;28;20219;-67
2022/12/09 09:59:57;;;;;;;121.87;36.50;;;0.80;99.90;;;;;;5062268;28;20209;-68
2022/12/09 10:02:56;;;;;;;123.93;37.20;;;0.90;99.90;;;;;;5064802;28;20254;-66
2022/12/09 10:05:27;;;;;;;124.80;37.63;;;0.90;99.90;;;;;;5066451;28;20197;-66
2022/12/09 10:08:37;;;;;;;120.57;36.53;;;1.00;99.90;;;;;;5064224;28;20205;-66
2022/12/09 10:11:11;;;;;;;122.90;37.37;;;1.00;99.90;;;;;;5065641;28;20268;-65
2022/12/09 10:13:51;;;;;;;121.80;36.17;;;1.10;99.90;;;;;;5061537;28;20263;-67
2022/12/09 10:16:55;;;;;;;121.23;36.00;;;1.20;99.90;;;;;;5065081;28;20558;-67
2022/12/09 10:19:38;;;;;;;120.10;35.37;;;1.20;99.90;;;;;;5064807;28;20249;-67
2022/12/09 10:22:14;;;;;;;112.27;34.63;;;1.30;99.90;;;;;;5063627;28;20207;-68
2022/12/09 10:24:50;;;;;;;112.07;33.93;;;1.30;99.90;;;;;;5063410;28;20279;-66
2022/12/09 10:27:39;;;;;;;124.40;36.37;;;1.40;99.90;;;;;;5064560;28;20223;-67
2022/12/09 10:30:15;;;;;;;111.57;32.57;;;1.40;99.90;;;;;;5056565;28;20234;-66
2022/12/09 10:32:43;;;;;;;117.87;32.60;;;1.50;99.90;;;;;;5061511;28;20279;-67
2022/12/09 10:35:25;;;;;;;108.10;35.20;;;1.70;99.90;;;;;;5064379;28;20220;-67
2022/12/09 10:37:55;;;;;;;109.40;34.40;;;1.80;99.90;;;;;;5063488;28;20627;-66
2022/12/09 10:40:54;;;;;;;120.13;36.07;;;1.60;99.90;;;;;;5047556;28;20208;-67
2022/12/09 10:43:35;;;;;;;107.20;32.93;;;1.70;99.90;;;;;;5046928;28;20621;-68
2022/12/09 10:46:25;;;;;;;111.80;32.97;;;1.70;99.90;;;;;;5059941;28;20201;-67
2022/12/09 10:48:57;;;;;;;110.03;30.97;;;1.80;99.90;;;;;;5062197;28;20311;-67
2022/12/09 10:51:30;;;;;;;112.43;31.43;;;1.80;99.90;;;;;;5064505;28;20300;-66
2022/12/09 10:54:05;;;;;;;112.17;33.57;;;;;;;;;;5066069;28;20311;-66
2022/12/09 10:56:34;;;;;;;107.70;32.17;;;2.00;99.90;;;;;;5048404;28;20216;-66
2022/12/09 10:59:18;;;;;;;114.57;35.57;;;2.00;99.90;;;;;;5063712;28;20429;-66
2022/12/09 11:01:53;;;;;;;91.37;28.67;;;2.20;99.90;;;;;;5065000;28;20198;-67
2022/12/09 11:04:22;;;;;;;86.73;29.03;;;2.30;99.90;;;;;;5066922;28;20210;-66
2022/12/09 11:06:51;;;;;;;90.50;29.57;;;2.40;99.90;;;;;;5063481;28;20938;-65
2022/12/09 11:09:31;;;;;;;85.87;29.37;;;2.60;99.90;;;;;;5045490;28;20229;-65
2022/12/09 11:11:59;;;;;;;65.37;26.50;;;2.70;99.90;;;;;;5044373;28;20387;-67
2022/12/09 11:14:48;;;;;;;68.03;24.70;;;2.90;99.90;;;;;;5065953;28;20223;-67
2022/12/09 11:17:19;;;;;;;63.80;24.07;;;3.20;99.90;;;;;;5062301;28;20650;-66
2022/12/09 11:19:51;;;;;;;59.73;22.37;;;3.30;99.90;;;;;;5062609;28;20669;-65
2022/12/09 11:22:37;;;;;;;50.60;20.60;;;3.30;99.90;;;;;;5067872;28;20206;-66
2022/12/09 11:25:14;;;;;;;50.90;20.47;;;3.40;99.90;;;;;;5065530;28;20223;-66
2022/12/09 11:27:47;;;;;;;48.63;20.60;;;3.30;99.90;;;;;;5065058;28;20684;-66
2022/12/09 11:30:36;;;;;;;46.77;20.43;;;3.40;99.90;;;;;;5066548;28;20242;-67
2022/12/09 11:33:12;;;;;;;44.07;18.97;;;3.40;99.90;;;;;;5060287;28;20223;-66
2022/12/09 11:35:42;;;;;;;41.47;19.93;;;3.40;99.90;;;;;;5058994;28;20277;-66
2022/12/09 11:38:35;;;;;;;39.40;19.73;;;3.40;99.90;;;;;;5062774;28;20204;-66
2022/12/09 11:44:21;;;;;;;41.87;19.97;;;3.50;99.90;;;;;;5061195;28;20270;-66
2022/12/09 11:47:00;;;;;;;40.30;18.40;;;3.50;99.90;;;;;;5062560;28;20310;-68
2022/12/09 11:49:29;;;;;;;39.17;18.23;;;3.50;99.90;;;;;;5063243;28;20292;-67
2022/12/09 11:52:20;;;;;;;43.97;19.57;;;3.50;99.90;;;;;;5065980;28;20244;-67
2022/12/09 11:55:06;;;;;;;40.70;19.90;;;3.60;99.90;;;;;;5057772;28;20343;-67
2022/12/09 11:57:51;;;;;;;40.93;19.10;;;3.60;99.90;;;;;;5061855;28;20332;-68
2022/12/09 12:00:20;;;;;;;38.00;18.17;;;3.50;99.90;;;;;;5063273;28;20201;-68
2022/12/09 12:03:02;;;;;;;42.70;19.33;;;3.50;99.90;;;;;;5063736;28;20272;-68
2022/12/09 12:05:35;;;;;;;40.57;19.90;;;3.50;99.90;;;;;;5060487;28;20298;-68
2022/12/09 12:08:15;;;;;;;39.87;19.20;;;3.50;99.90;;;;;;5065991;28;20216;-67
2022/12/09 12:10:54;;;;;;;42.03;18.43;;;3.50;99.90;;;;;;5065566;28;20251;-68
2022/12/09 12:13:45;;;;;;;44.97;18.47;;;3.50;99.90;;;;;;5065332;28;20234;-67
2022/12/09 12:16:26;;;;;;;37.00;17.50;;;3.50;99.90;;;;;;5046690;28;20254;-65
2022/12/09 12:19:04;;;;;;;41.30;19.17;;;3.50;99.90;;;;;;5048162;28;20266;-66
2022/12/09 12:21:46;;;;;;;35.23;18.70;;;3.50;99.90;;;;;;5062824;28;20193;-66
2022/12/09 12:24:22;;;;;;;39.83;18.50;;;3.50;99.90;;;;;;5062413;28;20227;-67
2022/12/09 12:27:07;;;;;;;33.93;16.83;;;3.50;99.90;;;;;;5061196;28;20236;-67
2022/12/09 12:29:47;;;;;;;38.37;17.47;;;3.50;99.90;;;;;;5053749;28;20664;-67
2022/12/09 12:32:33;;;;;;;34.43;17.30;;;3.50;99.90;;;;;;5044670;28;20215;-67
2022/12/09 12:35:44;;;;;;;34.80;16.87;;;3.50;99.90;;;;;;5061952;28;20220;-67
2022/12/09 12:38:31;;;;;;;33.87;17.13;;;3.50;99.90;;;;;;5062309;28;20652;-67
2022/12/09 12:41:33;;;;;;;36.60;16.97;;;3.50;99.90;;;;;;5062703;28;20283;-67
2022/12/09 12:47:19;;;;;;;38.77;18.83;;;3.50;99.90;;;;;;5059007;28;20201;-67
2022/12/09 12:49:54;;;;;;;35.90;16.87;;;3.50;99.90;;;;;;5060485;28;20319;-67
2022/12/09 12:52:36;;;;;;;34.97;17.03;;;3.50;99.90;;;;;;5063594;28;20200;-67
2022/12/09 12:55:46;;;;;;;35.50;17.00;;;3.50;99.90;;;;;;5063563;28;20234;-67
2022/12/09 12:58:29;;;;;;;34.17;16.67;;;3.50;99.90;;;;;;5062810;28;20236;-66
2022/12/09 13:01:21;;;;;;;31.50;15.07;;;3.50;99.90;;;;;;5064161;28;20235;-69
2022/12/09 13:04:11;;;;;;;31.13;16.40;;;3.50;99.90;;;;;;5060976;28;20750;-66
2022/12/09 13:06:47;;;;;;;30.90;16.53;;;3.50;99.90;;;;;;5063123;28;21029;-65